sensor_id;sensor_type;location;lat;lon;timestamp;P1;durP1;ratioP1;P2;durP2;ratioP2
27424;SDS011;15244;49.088;11.886;2023-05-08T00:03:45;5.10;;;4.78;;
27424;SDS011;15244;49.088;11.886;2023-05-08T00:08:47;5.07;;;4.78;;
27424;SDS011;15244;49.088;11.886;2023-05-08T00:13:48;5.15;;;4.85;;
27424;SDS011;15244;49.088;11.886;2023-05-08T00:18:50;5.60;;;5.22;;
27424;SDS011;15244;49.088;11.886;2023-05-08T00:23:53;6.18;;;5.78;;
27424;SDS011;15244;49.088;11.886;2023-05-08T00:28:55;5.88;;;5.47;;
27424;SDS011;15244;49.088;11.886;2023-05-08T00:33:56;5.80;;;5.40;;
27424;SDS011;15244;49.088;11.886;2023-05-08T00:38:58;5.68;;;5.28;;
27424;SDS011;15244;49.088;11.886;2023-05-08T00:44:00;6.00;;;5.50;;
27424;SDS011;15244;49.088;11.886;2023-05-08T00:49:02;5.32;;;5.03;;
27424;SDS011;15244;49.088;11.886;2023-05-08T00:54:05;5.45;;;5.15;;
27424;SDS011;15244;49.088;11.886;2023-05-08T00:59:08;6.03;;;5.63;;
27424;SDS011;15244;49.088;11.886;2023-05-08T01:04:12;6.45;;;5.22;;
27424;SDS011;15244;49.088;11.886;2023-05-08T01:09:14;5.68;;;5.28;;
27424;SDS011;15244;49.088;11.886;2023-05-08T01:14:18;6.32;;;5.78;;
27424;SDS011;15244;49.088;11.886;2023-05-08T01:35:59;6.00;;;5.70;;
27424;SDS011;15244;49.088;11.886;2023-05-08T01:41:14;6.10;;;5.80;;
27424;SDS011;15244;49.088;11.886;2023-05-08T01:46:19;6.22;;;5.72;;
27424;SDS011;15244;49.088;11.886;2023-05-08T01:51:26;6.07;;;5.68;;
27424;SDS011;15244;49.088;11.886;2023-05-08T01:56:31;6.65;;;6.20;;
27424;SDS011;15244;49.088;11.886;2023-05-08T02:01:35;7.25;;;6.63;;
27424;SDS011;15244;49.088;11.886;2023-05-08T02:06:37;6.55;;;6.05;;
27424;SDS011;15244;49.088;11.886;2023-05-08T02:11:40;6.70;;;6.13;;
27424;SDS011;15244;49.088;11.886;2023-05-08T02:16:44;7.13;;;6.57;;
27424;SDS011;15244;49.088;11.886;2023-05-08T02:21:48;8.05;;;6.70;;
27424;SDS011;15244;49.088;11.886;2023-05-08T02:26:51;7.47;;;6.88;;
27424;SDS011;15244;49.088;11.886;2023-05-08T02:31:56;7.03;;;6.53;;
27424;SDS011;15244;49.088;11.886;2023-05-08T02:36:58;6.65;;;6.22;;
27424;SDS011;15244;49.088;11.886;2023-05-08T02:42:01;7.28;;;6.75;;
27424;SDS011;15244;49.088;11.886;2023-05-08T02:47:05;6.70;;;6.20;;
27424;SDS011;15244;49.088;11.886;2023-05-08T02:52:28;7.10;;;6.50;;
27424;SDS011;15244;49.088;11.886;2023-05-08T02:57:40;6.82;;;6.30;;
27424;SDS011;15244;49.088;11.886;2023-05-08T03:02:55;7.43;;;6.82;;
27424;SDS011;15244;49.088;11.886;2023-05-08T03:08:13;6.45;;;6.05;;
27424;SDS011;15244;49.088;11.886;2023-05-08T03:13:17;7.75;;;7.15;;
27424;SDS011;15244;49.088;11.886;2023-05-08T03:18:22;7.50;;;6.90;;
27424;SDS011;15244;49.088;11.886;2023-05-08T03:23:28;7.57;;;6.93;;
27424;SDS011;15244;49.088;11.886;2023-05-08T03:28:34;7.25;;;6.85;;
27424;SDS011;15244;49.088;11.886;2023-05-08T03:33:36;7.63;;;7.03;;
27424;SDS011;15244;49.088;11.886;2023-05-08T03:38:39;7.32;;;6.72;;
27424;SDS011;15244;49.088;11.886;2023-05-08T03:43:41;7.40;;;6.90;;
27424;SDS011;15244;49.088;11.886;2023-05-08T03:48:44;7.57;;;7.00;;
27424;SDS011;15244;49.088;11.886;2023-05-08T03:53:48;7.65;;;7.05;;
27424;SDS011;15244;49.088;11.886;2023-05-08T03:58:52;7.63;;;7.10;;
27424;SDS011;15244;49.088;11.886;2023-05-08T04:04:02;8.17;;;7.47;;
27424;SDS011;15244;49.088;11.886;2023-05-08T04:09:18;7.47;;;6.80;;
27424;SDS011;15244;49.088;11.886;2023-05-08T04:14:21;6.82;;;6.40;;
27424;SDS011;15244;49.088;11.886;2023-05-08T04:19:27;8.18;;;7.57;;
27424;SDS011;15244;49.088;11.886;2023-05-08T04:24:34;6.78;;;6.32;;
27424;SDS011;15244;49.088;11.886;2023-05-08T04:29:41;7.82;;;7.10;;
27424;SDS011;15244;49.088;11.886;2023-05-08T04:34:43;9.60;;;7.70;;
27424;SDS011;15244;49.088;11.886;2023-05-08T04:39:45;7.93;;;6.88;;
27424;SDS011;15244;49.088;11.886;2023-05-08T04:44:51;7.45;;;6.75;;
27424;SDS011;15244;49.088;11.886;2023-05-08T04:49:54;8.32;;;7.47;;
27424;SDS011;15244;49.088;11.886;2023-05-08T04:54:56;8.20;;;7.40;;
27424;SDS011;15244;49.088;11.886;2023-05-08T04:59:58;7.50;;;6.90;;
27424;SDS011;15244;49.088;11.886;2023-05-08T05:05:00;8.13;;;7.63;;
27424;SDS011;15244;49.088;11.886;2023-05-08T05:10:03;8.38;;;7.65;;
27424;SDS011;15244;49.088;11.886;2023-05-08T05:15:06;8.50;;;7.50;;
27424;SDS011;15244;49.088;11.886;2023-05-08T05:20:11;8.02;;;7.43;;
27424;SDS011;15244;49.088;11.886;2023-05-08T05:25:13;8.23;;;7.43;;
27424;SDS011;15244;49.088;11.886;2023-05-08T05:30:15;8.07;;;7.47;;
27424;SDS011;15244;49.088;11.886;2023-05-08T05:35:17;8.27;;;7.57;;
27424;SDS011;15244;49.088;11.886;2023-05-08T05:40:19;8.40;;;7.80;;
27424;SDS011;15244;49.088;11.886;2023-05-08T05:45:21;8.13;;;7.43;;
27424;SDS011;15244;49.088;11.886;2023-05-08T05:50:24;8.63;;;7.88;;
27424;SDS011;15244;49.088;11.886;2023-05-08T05:55:28;7.68;;;7.07;;
27424;SDS011;15244;49.088;11.886;2023-05-08T06:00:31;8.65;;;7.85;;
27424;SDS011;15244;49.088;11.886;2023-05-08T06:05:33;8.02;;;7.43;;
27424;SDS011;15244;49.088;11.886;2023-05-08T06:10:36;8.93;;;8.13;;
27424;SDS011;15244;49.088;11.886;2023-05-08T06:15:37;8.52;;;7.72;;
27424;SDS011;15244;49.088;11.886;2023-05-08T06:20:40;7.70;;;7.10;;
27424;SDS011;15244;49.088;11.886;2023-05-08T06:25:43;8.30;;;7.28;;
27424;SDS011;15244;49.088;11.886;2023-05-08T06:30:44;7.95;;;7.30;;
27424;SDS011;15244;49.088;11.886;2023-05-08T06:35:46;8.82;;;7.90;;
27424;SDS011;15244;49.088;11.886;2023-05-08T06:40:49;8.20;;;7.60;;
27424;SDS011;15244;49.088;11.886;2023-05-08T06:45:51;7.32;;;6.82;;
27424;SDS011;15244;49.088;11.886;2023-05-08T06:50:53;7.78;;;7.22;;
27424;SDS011;15244;49.088;11.886;2023-05-08T06:55:56;8.10;;;7.40;;
27424;SDS011;15244;49.088;11.886;2023-05-08T07:01:01;8.27;;;7.40;;
27424;SDS011;15244;49.088;11.886;2023-05-08T07:06:03;7.80;;;7.20;;
27424;SDS011;15244;49.088;11.886;2023-05-08T07:11:04;8.90;;;8.15;;
27424;SDS011;15244;49.088;11.886;2023-05-08T07:16:09;7.90;;;7.30;;
27424;SDS011;15244;49.088;11.886;2023-05-08T07:21:11;8.55;;;7.95;;
27424;SDS011;15244;49.088;11.886;2023-05-08T07:26:12;8.00;;;7.35;;
27424;SDS011;15244;49.088;11.886;2023-05-08T07:31:15;9.23;;;7.55;;
27424;SDS011;15244;49.088;11.886;2023-05-08T07:36:17;8.18;;;7.38;;
27424;SDS011;15244;49.088;11.886;2023-05-08T07:41:18;8.77;;;8.10;;
27424;SDS011;15244;49.088;11.886;2023-05-08T07:46:21;8.18;;;7.50;;
27424;SDS011;15244;49.088;11.886;2023-05-08T07:51:23;8.45;;;7.78;;
27424;SDS011;15244;49.088;11.886;2023-05-08T07:56:25;8.05;;;7.32;;
27424;SDS011;15244;49.088;11.886;2023-05-08T08:01:27;7.72;;;7.15;;
27424;SDS011;15244;49.088;11.886;2023-05-08T08:06:29;7.95;;;7.43;;
27424;SDS011;15244;49.088;11.886;2023-05-08T08:11:32;7.13;;;6.63;;
27424;SDS011;15244;49.088;11.886;2023-05-08T08:16:33;8.18;;;7.47;;
27424;SDS011;15244;49.088;11.886;2023-05-08T08:21:35;9.00;;;8.13;;
27424;SDS011;15244;49.088;11.886;2023-05-08T08:26:37;8.50;;;7.80;;
27424;SDS011;15244;49.088;11.886;2023-05-08T08:31:39;8.38;;;7.72;;
27424;SDS011;15244;49.088;11.886;2023-05-08T08:36:42;8.07;;;7.53;;
27424;SDS011;15244;49.088;11.886;2023-05-08T08:41:44;7.63;;;7.03;;
27424;SDS011;15244;49.088;11.886;2023-05-08T08:46:51;9.10;;;8.20;;
27424;SDS011;15244;49.088;11.886;2023-05-08T08:51:55;8.82;;;8.13;;
27424;SDS011;15244;49.088;11.886;2023-05-08T08:57:00;8.38;;;7.75;;
27424;SDS011;15244;49.088;11.886;2023-05-08T09:02:07;7.95;;;7.35;;
27424;SDS011;15244;49.088;11.886;2023-05-08T09:07:11;8.10;;;7.40;;
27424;SDS011;15244;49.088;11.886;2023-05-08T09:12:13;7.32;;;6.82;;
27424;SDS011;15244;49.088;11.886;2023-05-08T09:17:16;9.20;;;8.40;;
27424;SDS011;15244;49.088;11.886;2023-05-08T09:22:17;7.28;;;6.65;;
27424;SDS011;15244;49.088;11.886;2023-05-08T09:27:20;8.00;;;7.40;;
27424;SDS011;15244;49.088;11.886;2023-05-08T09:32:23;8.70;;;7.93;;
27424;SDS011;15244;49.088;11.886;2023-05-08T09:37:24;7.93;;;7.35;;
27424;SDS011;15244;49.088;11.886;2023-05-08T09:42:31;7.88;;;7.38;;
27424;SDS011;15244;49.088;11.886;2023-05-08T09:47:38;7.45;;;6.95;;
27424;SDS011;15244;49.088;11.886;2023-05-08T09:52:48;7.38;;;6.88;;
27424;SDS011;15244;49.088;11.886;2023-05-08T09:57:57;9.10;;;7.07;;
27424;SDS011;15244;49.088;11.886;2023-05-08T10:03:01;6.85;;;6.35;;
27424;SDS011;15244;49.088;11.886;2023-05-08T10:08:18;7.22;;;6.68;;
27424;SDS011;15244;49.088;11.886;2023-05-08T10:13:21;6.72;;;6.32;;
27424;SDS011;15244;49.088;11.886;2023-05-08T10:18:23;6.85;;;6.28;;
27424;SDS011;15244;49.088;11.886;2023-05-08T10:23:30;6.43;;;6.03;;
27424;SDS011;15244;49.088;11.886;2023-05-08T10:28:36;6.00;;;5.60;;
27424;SDS011;15244;49.088;11.886;2023-05-08T10:33:43;6.30;;;5.90;;
27424;SDS011;15244;49.088;11.886;2023-05-08T10:38:47;6.32;;;5.82;;
27424;SDS011;15244;49.088;11.886;2023-05-08T10:43:50;6.82;;;6.00;;
27424;SDS011;15244;49.088;11.886;2023-05-08T10:48:57;5.97;;;5.57;;
27424;SDS011;15244;49.088;11.886;2023-05-08T10:54:17;5.00;;;4.80;;
27424;SDS011;15244;49.088;11.886;2023-05-08T10:59:28;6.40;;;5.82;;
27424;SDS011;15244;49.088;11.886;2023-05-08T11:04:38;5.55;;;5.15;;
27424;SDS011;15244;49.088;11.886;2023-05-08T11:14:42;5.13;;;4.72;;
27424;SDS011;15244;49.088;11.886;2023-05-08T11:20:11;5.57;;;5.28;;
27424;SDS011;15244;49.088;11.886;2023-05-08T11:25:13;4.80;;;4.40;;
27424;SDS011;15244;49.088;11.886;2023-05-08T11:35:39;4.13;;;3.92;;
27424;SDS011;15244;49.088;11.886;2023-05-08T11:40:58;4.13;;;3.92;;
27424;SDS011;15244;49.088;11.886;2023-05-08T11:46:02;4.18;;;3.88;;
27424;SDS011;15244;49.088;11.886;2023-05-08T11:51:22;4.20;;;3.90;;
27424;SDS011;15244;49.088;11.886;2023-05-08T11:56:24;4.97;;;4.22;;
27424;SDS011;15244;49.088;11.886;2023-05-08T12:01:33;4.68;;;3.78;;
27424;SDS011;15244;49.088;11.886;2023-05-08T12:06:35;4.80;;;4.35;;
27424;SDS011;15244;49.088;11.886;2023-05-08T12:11:39;6.85;;;4.05;;
27424;SDS011;15244;49.088;11.886;2023-05-08T12:16:45;6.10;;;4.85;;
27424;SDS011;15244;49.088;11.886;2023-05-08T12:21:46;5.38;;;4.88;;
27424;SDS011;15244;49.088;11.886;2023-05-08T12:26:52;5.35;;;4.95;;
27424;SDS011;15244;49.088;11.886;2023-05-08T12:31:57;5.03;;;4.75;;
27424;SDS011;15244;49.088;11.886;2023-05-08T12:37:02;4.80;;;4.50;;
27424;SDS011;15244;49.088;11.886;2023-05-08T12:42:05;5.05;;;4.75;;
27424;SDS011;15244;49.088;11.886;2023-05-08T12:47:06;4.70;;;4.30;;
27424;SDS011;15244;49.088;11.886;2023-05-08T12:52:11;5.13;;;4.72;;
27424;SDS011;15244;49.088;11.886;2023-05-08T12:57:14;4.60;;;4.40;;
27424;SDS011;15244;49.088;11.886;2023-05-08T13:02:18;4.72;;;4.43;;
27424;SDS011;15244;49.088;11.886;2023-05-08T13:07:30;5.10;;;4.70;;
27424;SDS011;15244;49.088;11.886;2023-05-08T13:12:32;4.88;;;4.57;;
27424;SDS011;15244;49.088;11.886;2023-05-08T13:17:34;4.97;;;4.68;;
27424;SDS011;15244;49.088;11.886;2023-05-08T13:22:36;5.13;;;4.68;;
27424;SDS011;15244;49.088;11.886;2023-05-08T13:27:37;4.82;;;4.53;;
27424;SDS011;15244;49.088;11.886;2023-05-08T13:32:39;5.72;;;5.25;;
27424;SDS011;15244;49.088;11.886;2023-05-08T13:37:41;5.05;;;4.75;;
27424;SDS011;15244;49.088;11.886;2023-05-08T13:42:43;4.97;;;4.68;;
27424;SDS011;15244;49.088;11.886;2023-05-08T13:47:45;4.65;;;4.35;;
27424;SDS011;15244;49.088;11.886;2023-05-08T13:52:47;4.70;;;4.40;;
27424;SDS011;15244;49.088;11.886;2023-05-08T13:57:50;4.72;;;4.43;;
27424;SDS011;15244;49.088;11.886;2023-05-08T14:02:52;3.80;;;3.60;;
27424;SDS011;15244;49.088;11.886;2023-05-08T14:07:53;4.93;;;4.63;;
27424;SDS011;15244;49.088;11.886;2023-05-08T14:12:55;4.40;;;4.10;;
27424;SDS011;15244;49.088;11.886;2023-05-08T14:17:57;4.55;;;4.30;;
27424;SDS011;15244;49.088;11.886;2023-05-08T14:22:58;4.93;;;4.63;;
27424;SDS011;15244;49.088;11.886;2023-05-08T14:28:01;4.50;;;4.30;;
27424;SDS011;15244;49.088;11.886;2023-05-08T14:33:02;5.68;;;5.28;;
27424;SDS011;15244;49.088;11.886;2023-05-08T14:38:05;5.07;;;4.78;;
27424;SDS011;15244;49.088;11.886;2023-05-08T14:43:07;4.57;;;4.38;;
27424;SDS011;15244;49.088;11.886;2023-05-08T14:48:08;9.73;;;4.50;;
27424;SDS011;15244;49.088;11.886;2023-05-08T14:53:10;4.13;;;3.83;;
27424;SDS011;15244;49.088;11.886;2023-05-08T14:58:12;4.88;;;4.47;;
27424;SDS011;15244;49.088;11.886;2023-05-08T15:03:13;6.95;;;4.30;;
27424;SDS011;15244;49.088;11.886;2023-05-08T15:08:15;4.65;;;4.25;;
27424;SDS011;15244;49.088;11.886;2023-05-08T15:13:17;4.50;;;4.15;;
27424;SDS011;15244;49.088;11.886;2023-05-08T15:18:19;4.03;;;3.83;;
27424;SDS011;15244;49.088;11.886;2023-05-08T15:23:21;4.30;;;4.00;;
27424;SDS011;15244;49.088;11.886;2023-05-08T15:28:22;4.93;;;4.45;;
27424;SDS011;15244;49.088;11.886;2023-05-08T15:33:24;4.25;;;3.95;;
27424;SDS011;15244;49.088;11.886;2023-05-08T15:38:25;4.47;;;3.75;;
27424;SDS011;15244;49.088;11.886;2023-05-08T15:43:27;4.30;;;4.00;;
27424;SDS011;15244;49.088;11.886;2023-05-08T15:48:29;3.97;;;3.67;;
27424;SDS011;15244;49.088;11.886;2023-05-08T15:53:31;4.72;;;3.70;;
27424;SDS011;15244;49.088;11.886;2023-05-08T15:58:33;3.88;;;3.67;;
27424;SDS011;15244;49.088;11.886;2023-05-08T16:03:36;3.63;;;3.42;;
27424;SDS011;15244;49.088;11.886;2023-05-08T16:08:38;3.83;;;3.63;;
27424;SDS011;15244;49.088;11.886;2023-05-08T16:13:40;3.10;;;3.00;;
27424;SDS011;15244;49.088;11.886;2023-05-08T16:18:41;3.53;;;3.25;;
27424;SDS011;15244;49.088;11.886;2023-05-08T16:23:43;3.00;;;2.90;;
27424;SDS011;15244;49.088;11.886;2023-05-08T16:28:45;3.50;;;3.20;;
27424;SDS011;15244;49.088;11.886;2023-05-08T16:33:46;3.38;;;3.17;;
27424;SDS011;15244;49.088;11.886;2023-05-08T16:38:48;3.60;;;3.30;;
27424;SDS011;15244;49.088;11.886;2023-05-08T16:43:49;3.75;;;3.55;;
27424;SDS011;15244;49.088;11.886;2023-05-08T16:48:51;3.38;;;3.17;;
27424;SDS011;15244;49.088;11.886;2023-05-08T16:53:52;3.28;;;3.08;;
27424;SDS011;15244;49.088;11.886;2023-05-08T16:58:57;3.40;;;3.20;;
27424;SDS011;15244;49.088;11.886;2023-05-08T17:03:59;3.58;;;3.38;;
27424;SDS011;15244;49.088;11.886;2023-05-08T17:09:01;2.92;;;2.83;;
27424;SDS011;15244;49.088;11.886;2023-05-08T17:14:03;3.22;;;3.03;;
27424;SDS011;15244;49.088;11.886;2023-05-08T17:19:05;3.03;;;2.92;;
27424;SDS011;15244;49.088;11.886;2023-05-08T17:24:06;3.15;;;3.05;;
27424;SDS011;15244;49.088;11.886;2023-05-08T17:29:08;3.10;;;2.80;;
27424;SDS011;15244;49.088;11.886;2023-05-08T17:34:10;3.40;;;3.20;;
27424;SDS011;15244;49.088;11.886;2023-05-08T17:39:11;3.20;;;3.00;;
27424;SDS011;15244;49.088;11.886;2023-05-08T17:44:13;2.95;;;2.75;;
27424;SDS011;15244;49.088;11.886;2023-05-08T17:49:15;3.08;;;2.90;;
27424;SDS011;15244;49.088;11.886;2023-05-08T17:54:19;3.45;;;3.25;;
27424;SDS011;15244;49.088;11.886;2023-05-08T17:59:21;2.92;;;2.83;;
27424;SDS011;15244;49.088;11.886;2023-05-08T18:04:23;3.08;;;2.88;;
27424;SDS011;15244;49.088;11.886;2023-05-08T18:09:24;4.57;;;2.70;;
27424;SDS011;15244;49.088;11.886;2023-05-08T18:14:29;2.85;;;2.70;;
27424;SDS011;15244;49.088;11.886;2023-05-08T18:19:34;2.80;;;2.70;;
27424;SDS011;15244;49.088;11.886;2023-05-08T18:24:35;3.08;;;2.88;;
27424;SDS011;15244;49.088;11.886;2023-05-08T18:29:37;3.50;;;3.20;;
27424;SDS011;15244;49.088;11.886;2023-05-08T18:34:39;2.78;;;2.67;;
27424;SDS011;15244;49.088;11.886;2023-05-08T18:39:41;3.20;;;3.00;;
27424;SDS011;15244;49.088;11.886;2023-05-08T18:44:43;3.15;;;2.95;;
27424;SDS011;15244;49.088;11.886;2023-05-08T18:49:44;5.55;;;3.10;;
27424;SDS011;15244;49.088;11.886;2023-05-08T18:54:46;3.90;;;3.45;;
27424;SDS011;15244;49.088;11.886;2023-05-08T18:59:48;3.13;;;2.92;;
27424;SDS011;15244;49.088;11.886;2023-05-08T19:04:50;3.35;;;3.13;;
27424;SDS011;15244;49.088;11.886;2023-05-08T19:09:53;2.70;;;2.60;;
27424;SDS011;15244;49.088;11.886;2023-05-08T19:14:55;3.28;;;2.97;;
27424;SDS011;15244;49.088;11.886;2023-05-08T19:19:57;2.72;;;2.63;;
27424;SDS011;15244;49.088;11.886;2023-05-08T19:24:58;3.58;;;3.38;;
27424;SDS011;15244;49.088;11.886;2023-05-08T19:30:00;3.33;;;3.13;;
27424;SDS011;15244;49.088;11.886;2023-05-08T19:35:03;3.83;;;3.53;;
27424;SDS011;15244;49.088;11.886;2023-05-08T19:40:05;3.63;;;3.42;;
27424;SDS011;15244;49.088;11.886;2023-05-08T19:45:08;3.33;;;3.13;;
27424;SDS011;15244;49.088;11.886;2023-05-08T19:50:10;3.30;;;3.10;;
27424;SDS011;15244;49.088;11.886;2023-05-08T19:55:17;3.13;;;2.93;;
27424;SDS011;15244;49.088;11.886;2023-05-08T20:00:19;2.70;;;2.60;;
27424;SDS011;15244;49.088;11.886;2023-05-08T20:05:21;3.17;;;2.97;;
27424;SDS011;15244;49.088;11.886;2023-05-08T20:10:23;3.13;;;3.00;;
27424;SDS011;15244;49.088;11.886;2023-05-08T20:15:25;3.92;;;3.63;;
27424;SDS011;15244;49.088;11.886;2023-05-08T20:20:26;4.00;;;3.70;;
27424;SDS011;15244;49.088;11.886;2023-05-08T20:25:30;3.70;;;3.40;;
27424;SDS011;15244;49.088;11.886;2023-05-08T20:30:31;3.78;;;3.58;;
27424;SDS011;15244;49.088;11.886;2023-05-08T20:35:33;3.70;;;3.40;;
27424;SDS011;15244;49.088;11.886;2023-05-08T20:40:35;3.72;;;3.53;;
27424;SDS011;15244;49.088;11.886;2023-05-08T20:45:37;3.72;;;3.50;;
27424;SDS011;15244;49.088;11.886;2023-05-08T20:50:39;3.58;;;3.28;;
27424;SDS011;15244;49.088;11.886;2023-05-08T20:55:40;3.63;;;3.33;;
27424;SDS011;15244;49.088;11.886;2023-05-08T21:00:42;3.85;;;3.53;;
27424;SDS011;15244;49.088;11.886;2023-05-08T21:05:43;3.70;;;3.50;;
27424;SDS011;15244;49.088;11.886;2023-05-08T21:10:45;3.25;;;3.05;;
27424;SDS011;15244;49.088;11.886;2023-05-08T21:15:47;3.63;;;3.42;;
27424;SDS011;15244;49.088;11.886;2023-05-08T21:20:50;4.13;;;2.83;;
27424;SDS011;15244;49.088;11.886;2023-05-08T21:25:52;3.17;;;3.05;;
27424;SDS011;15244;49.088;11.886;2023-05-08T21:30:53;3.75;;;3.55;;
27424;SDS011;15244;49.088;11.886;2023-05-08T21:35:55;3.60;;;3.30;;
27424;SDS011;15244;49.088;11.886;2023-05-08T21:41:03;3.50;;;3.20;;
27424;SDS011;15244;49.088;11.886;2023-05-08T21:46:05;3.25;;;3.05;;
27424;SDS011;15244;49.088;11.886;2023-05-08T21:51:09;5.88;;;3.58;;
27424;SDS011;15244;49.088;11.886;2023-05-08T21:56:10;4.18;;;3.67;;
27424;SDS011;15244;49.088;11.886;2023-05-08T22:01:12;3.60;;;3.30;;
27424;SDS011;15244;49.088;11.886;2023-05-08T22:06:14;3.60;;;3.40;;
27424;SDS011;15244;49.088;11.886;2023-05-08T22:11:15;3.50;;;3.17;;
27424;SDS011;15244;49.088;11.886;2023-05-08T22:16:17;3.50;;;3.30;;
27424;SDS011;15244;49.088;11.886;2023-05-08T22:21:18;5.00;;;4.10;;
27424;SDS011;15244;49.088;11.886;2023-05-08T22:26:20;4.00;;;3.70;;
27424;SDS011;15244;49.088;11.886;2023-05-08T22:31:22;4.30;;;4.00;;
27424;SDS011;15244;49.088;11.886;2023-05-08T22:36:24;4.90;;;4.22;;
27424;SDS011;15244;49.088;11.886;2023-05-08T22:41:26;4.55;;;4.25;;
27424;SDS011;15244;49.088;11.886;2023-05-08T22:46:31;4.45;;;4.07;;
27424;SDS011;15244;49.088;11.886;2023-05-08T22:51:33;5.07;;;4.65;;
27424;SDS011;15244;49.088;11.886;2023-05-08T22:56:36;5.25;;;4.38;;
27424;SDS011;15244;49.088;11.886;2023-05-08T23:01:38;5.28;;;4.88;;
27424;SDS011;15244;49.088;11.886;2023-05-08T23:06:40;4.63;;;4.32;;
27424;SDS011;15244;49.088;11.886;2023-05-08T23:11:41;4.68;;;4.38;;
27424;SDS011;15244;49.088;11.886;2023-05-08T23:16:43;5.03;;;4.63;;
27424;SDS011;15244;49.088;11.886;2023-05-08T23:21:45;5.05;;;4.57;;
27424;SDS011;15244;49.088;11.886;2023-05-08T23:26:46;5.15;;;4.70;;
27424;SDS011;15244;49.088;11.886;2023-05-08T23:31:49;5.03;;;4.68;;
27424;SDS011;15244;49.088;11.886;2023-05-08T23:36:51;4.75;;;4.45;;
27424;SDS011;15244;49.088;11.886;2023-05-08T23:41:53;5.07;;;4.72;;
27424;SDS011;15244;49.088;11.886;2023-05-08T23:46:54;5.32;;;4.93;;
27424;SDS011;15244;49.088;11.886;2023-05-08T23:51:56;5.40;;;5.00;;
27424;SDS011;15244;49.088;11.886;2023-05-08T23:56:57;4.93;;;4.63;;
